Архив погоды в Маслянино

Метеограмма Маслянино
Четверг, 23 Мая
Время местн. Темп Ветер Видим Явления Облачность нижн/средн/верх Атм. давл. Влжн Точка росы ВНГО R Сост. почвы Tg s
Напр Скр Прв ур.ст ур.м изм
04:00 +4.2° В,Ю-В 1 - 20 км - облачно 739 758 +1.3 88% +2.4° 1 км - - - -
01:00 +4.9° В,Ю-В 1 - 20 км - облачно 738 756 +1.5 80% +1.7° 1 км - - - -
Среда, 22 Мая
Время местн. Темп Ветер Видим Явления Облачность нижн/средн/верх Атм. давл. Влжн Точка росы ВНГО R Сост. почвы Tg s
Напр Скр Прв ур.ст ур.м изм
22:00 +8.2° З 2 - 20 км - облачно с прояснениями 737 755 +0.3 64% +1.8° 1 км - - - -
19:00 +13.4° З 2 - 20 км - облачно с прояснениями 736 754 -1.4 38% -0.5° 1 км 0 - - -
16:00 +13.6° З 2 10 20 км - переменная облачность 738 756 -1 41% +0.7° 1 км - - - -
13:00 +12.3° З,Ю-З 4 - 20 км - облачно с прояснениями 739 757 -0.8 44% +0.3° 1 км - - - -
10:00 +10.1° З 4 - 20 км - облачно с прояснениями 740 758 +0.5 54% +1.3° 1 км - - - -
07:00 +5.9° З 2 - 20 км - переменная облачность 739 757 +1.4 71% +1.1° 1 км 0 Влажная (без луж) +1° -
04:00 +3.8° З 1 - 20 км - ясно 738 756 +0.6 73% -0.6° более 2.5 км - - - -
01:00 +6.6° З 1 - 20 км - ясно 737 755 +1 60% -0.5° более 2.5 км - - - -
Вторник, 21 Мая
Время местн. Темп Ветер Видим Явления Облачность нижн/средн/верх Атм. давл. Влжн Точка росы ВНГО R Сост. почвы Tg s
Напр Скр Прв ур.ст ур.м изм
22:00 +11.5° З,С-З 2 10 20 км - облачно 736 754 +1.7 55% +2.8° 1 км - - - -
19:00 +15.4° З 5 14 20 км - переменная облачность 735 752 -0.2 38% +1.3° 1 км 0.3 - - -
16:00 +14° З 2 - 20 км ливневый дождь облачно с прояснениями 735 752 +0.3 66% +7.8° 1 км - - - -
13:00 +13.9° З,С-З 4 - 20 км - облачно 734 752 +0.5 57% +5.5° 1 км - - - -
10:00 +10.8° З,С-З 1 - 20 км - облачно с прояснениями 734 752 +1.3 71% +5.8° 1 км - - - -
07:00 +6.9° штиль 0 - 20 км небо без изменений {ливневые осадки} облачно 733 751 -0.4 85% +4.5° 1 км 28 Сырая (есть малые или большие лужи) +8° -
04:00 +9° С,С-З 3 - 4 км слабый ливневый дождь облачно 733 751 -2.3 95% +8.2° 600 м - - - -
01:00 +9.3° Ю-В 2 - 4 км слабый ливневый дождь облачно 735 753 -1.7 97% +8.8° 600 м - - - -
Понедельник, 20 Мая
Время местн. Темп Ветер Видим Явления Облачность нижн/средн/верх Атм. давл. Влжн Точка росы ВНГО R Сост. почвы Tg s
Напр Скр Прв ур.ст ур.м изм
22:00 +10.2° В,С-В 1 12 4 км слабый ливневый дождь облачно 737 755 +0.2 92% +8.9° 600 м - - - -
19:00 +18.6° З,Ю-З 3 15 20 км - облачно 737 754 -0.3 29% +0.2° 1 км 0 - - -
16:00 +21.3° З,Ю-З 7 17 20 км - облачно с прояснениями 737 755 +0.3 25% +0.7° 1 км - - - -
13:00 +21° З,Ю-З 6 14 20 км - преимущественно облачно 737 754 -0.7 28% +1.9° 1 км - - - -
10:00 +17.9° Ю,Ю-З 6 - 20 км - переменная облачность 738 755 -0.5 35% +2.1° более 2.5 км - - - -
07:00 +4.9° Ю-В 1 - 10 км - переменная облачность 738 756 -0.1 93% +3.9° более 2.5 км 0 Сухая (без трещин) -
04:00 +2.9° штиль 0 - 20 км - ясно 738 757 -0.2 94% +2.1° более 2.5 км - - - -
01:00 +8° З,С-З 1 - 20 км - ясно 738 757 +0.7 79% +4.6° более 2.5 км - - - -